Time;durP1;ratioP1;P1;durP2;ratioP2;P2;SDS_P1;SDS_P2;PMS_P1;PMS_P2;Temp;Humidity;BMP_temperature;BMP_pressure;BME280_temperature;BME280_humidity;BME280_pressure;Samples;Min_cycle;Max_cycle;Signal;HPM_P1;HPM_P2
2021/05/26 00:00:20;;;;;;;4.97;4.33;;;;;;;17.25;71.56;99900.08;1580136;90;21613;-70
2021/05/26 00:02:48;;;;;;;4.67;4.20;;;;;;;17.23;71.67;99897.64;1581376;90;21117;-70
2021/05/26 00:05:16;;;;;;;8.95;4.30;;;;;;;17.20;71.78;99897.42;1578755;90;21687;-69
2021/05/26 00:07:42;;;;;;;8.48;4.10;;;;;;;17.21;71.81;99907.20;1576642;91;21124;-70
2021/05/26 00:10:11;;;;;;;8.33;5.05;;;;;;;17.19;71.83;99902.04;1576663;90;21053;-69
2021/05/26 00:12:38;;;;;;;4.80;4.33;;;;;;;17.17;71.86;99906.94;1580186;89;21006;-69
2021/05/26 00:15:08;;;;;;;6.05;4.65;;;;;;;17.15;72.12;99915.14;1560748;90;21120;-68
2021/05/26 00:17:35;;;;;;;7.58;4.67;;;;;;;17.05;72.55;99914.69;1581343;90;21098;-71
2021/05/26 00:20:03;;;;;;;4.58;4.22;;;;;;;16.95;73.06;99918.86;1576448;89;21942;-71
2021/05/26 00:22:29;;;;;;;4.67;4.28;;;;;;;16.88;73.14;99924.61;1576739;90;21050;-70
2021/05/26 00:24:56;;;;;;;7.58;4.00;;;;;;;16.91;73.18;99930.86;1555634;91;20998;-71
2021/05/26 00:27:22;;;;;;;7.75;4.78;;;;;;;16.94;73.16;99930.81;1556491;91;21616;-70
2021/05/26 00:29:49;;;;;;;6.60;4.55;;;;;;;16.91;73.37;99934.93;1568181;89;21090;-70
2021/05/26 00:32:16;;;;;;;5.90;4.33;;;;;;;16.86;73.40;99933.62;1600353;89;21790;-69
2021/05/26 00:34:42;;;;;;;7.25;4.75;;;;;;;16.87;73.41;99933.89;1563071;90;21099;-68
2021/05/26 00:37:09;;;;;;;6.80;5.28;;;;;;;16.86;73.45;99940.95;1581239;90;21041;-69
2021/05/26 00:39:35;;;;;;;6.45;4.40;;;;;;;16.88;73.50;99942.84;1560389;90;21114;-69
2021/05/26 00:42:02;;;;;;;7.92;4.08;;;;;;;16.91;73.42;99944.98;1594318;87;21071;-69
2021/05/26 00:44:29;;;;;;;12.35;5.95;;;;;;;16.95;73.30;99940.59;1618626;87;21190;-72
2021/05/26 00:46:55;;;;;;;4.33;3.92;;;;;;;16.94;73.27;99939.78;1586055;89;21021;-71
2021/05/26 00:49:22;;;;;;;5.37;4.53;;;;;;;16.87;73.39;99937.15;1631040;87;21952;-73
2021/05/26 00:51:49;;;;;;;4.87;4.40;;;;;;;16.76;73.55;99936.41;1613995;87;21114;-73
2021/05/26 00:54:15;;;;;;;4.92;3.87;;;;;;;16.67;73.72;99933.23;1580756;89;21137;-71
2021/05/26 00:56:43;;;;;;;6.17;3.47;;;;;;;16.61;73.85;99925.67;1602329;88;21985;-72
2021/05/26 00:59:09;;;;;;;5.67;3.65;;;;;;;16.59;73.86;99925.16;1607357;88;21138;-71
2021/05/26 01:01:36;;;;;;;3.75;3.45;;;;;;;16.56;74.07;99926.48;1585556;89;21027;-67
2021/05/26 01:04:04;;;;;;;8.83;4.45;;;;;;;16.53;74.21;99920.28;1584229;89;21093;-70
2021/05/26 01:06:31;;;;;;;14.85;5.47;;;;;;;16.52;74.28;99929.52;1607896;89;21005;-70
2021/05/26 01:08:58;;;;;;;5.20;4.58;;;;;;;16.51;74.37;99924.36;1607785;89;21013;-70
2021/05/26 01:11:24;;;;;;;8.75;4.40;;;;;;;16.48;74.50;99919.50;1586080;89;21641;-70
2021/05/26 01:13:52;;;;;;;13.48;5.00;;;;;;;16.47;74.75;99923.30;1610042;87;21026;-71
2021/05/26 01:16:19;;;;;;;5.10;4.65;;;;;;;16.42;74.95;99920.08;1621963;88;21626;-70
2021/05/26 01:18:48;;;;;;;8.90;4.42;;;;;;;16.38;75.04;99914.14;1618672;88;21581;-70
2021/05/26 01:21:17;;;;;;;5.83;5.22;;;;;;;16.40;75.13;99914.69;1598512;88;22050;-71
2021/05/26 01:23:45;;;;;;;4.87;3.77;;;;;;;16.34;75.35;99907.12;1620505;86;21091;-69
2021/05/26 01:26:14;;;;;;;6.15;4.62;;;;;;;16.32;75.42;99907.93;1621840;88;21034;-69
2021/05/26 01:28:42;;;;;;;4.90;4.40;;;;;;;16.28;75.77;99912.30;1618669;87;21623;-71
2021/05/26 01:31:11;;;;;;;4.55;4.15;;;;;;;16.28;75.76;99910.14;1618682;88;21034;-70
2021/05/26 01:33:38;;;;;;;4.90;3.45;;;;;;;16.29;75.84;99909.86;1652217;86;21795;-70
2021/05/26 01:36:10;;;;;;;9.50;4.75;;;;;;;16.30;75.89;99909.32;1604390;88;21094;-71
2021/05/26 01:38:37;;;;;;;6.40;3.95;;;;;;;16.30;75.94;99901.99;1601394;88;21063;-73
2021/05/26 01:41:04;;;;;;;6.42;4.55;;;;;;;16.33;75.92;99910.11;1604308;88;21063;-72
2021/05/26 01:43:35;;;;;;;5.30;4.65;;;;;;;16.33;76.04;99906.03;1649595;86;21631;-69
2021/05/26 01:46:02;;;;;;;6.25;4.80;;;;;;;16.29;76.08;99901.72;1642265;86;21075;-70
2021/05/26 01:48:31;;;;;;;4.28;3.87;;;;;;;16.27;76.24;99894.94;1619650;88;21046;-69
2021/05/26 01:50:57;;;;;;;5.92;4.92;;;;;;;16.26;76.43;99897.41;1605007;88;21014;-70
2021/05/26 01:53:26;;;;;;;9.35;5.55;;;;;;;16.23;76.54;99896.05;1625946;87;21094;-72
2021/05/26 01:55:54;;;;;;;5.35;4.03;;;;;;;16.22;76.55;99891.71;1623776;87;21035;-70
2021/05/26 01:58:20;;;;;;;6.67;4.67;;;;;;;16.21;76.64;99892.80;1622240;87;21642;-69
2021/05/26 02:00:48;;;;;;;7.85;5.42;;;;;;;16.22;76.54;99894.42;1605031;88;21638;-70
2021/05/26 02:03:15;;;;;;;4.22;3.80;;;;;;;16.22;76.68;99890.90;1625439;87;20932;-71
2021/05/26 02:05:43;;;;;;;8.80;4.67;;;;;;;16.20;76.69;99889.03;1626808;86;21072;-70
2021/05/26 02:08:09;;;;;;;9.40;4.55;;;;;;;16.19;76.74;99882.78;1623690;88;20959;-71
2021/05/26 02:13:22;;;;;;;5.37;4.75;;;;;;;16.17;76.91;99887.67;1598726;88;21026;-70
2021/05/26 02:15:51;;;;;;;5.12;4.20;;;;;;;16.12;77.04;99884.99;1618748;88;21559;-76
2021/05/26 02:18:19;;;;;;;8.40;5.70;;;;;;;16.10;77.44;99884.48;1621189;86;21632;-72
2021/05/26 02:20:47;;;;;;;5.67;5.17;;;;;;;16.08;77.41;99890.17;1624679;87;21123;-71
2021/05/26 02:23:13;;;;;;;6.37;5.47;;;;;;;16.04;77.59;99885.05;1604470;88;22280;-72
2021/05/26 02:25:41;;;;;;;5.08;4.58;;;;;;;16.00;77.73;99889.97;1630385;86;21019;-72
2021/05/26 02:28:11;;;;;;;6.87;5.37;;;;;;;15.94;78.04;99882.94;1618780;88;21102;-71
2021/05/26 02:30:37;;;;;;;5.20;4.70;;;;;;;15.93;78.11;99888.09;1618829;88;21031;-72
2021/05/26 02:33:05;;;;;;;4.65;4.22;;;;;;;15.91;78.29;99886.23;1618869;88;21075;-70
2021/05/26 02:35:31;;;;;;;4.87;4.37;;;;;;;15.92;78.31;99881.86;1598535;88;21652;-71
2021/05/26 02:37:59;;;;;;;8.60;4.92;;;;;;;15.93;78.36;99881.31;1646862;86;21571;-69
2021/05/26 02:40:27;;;;;;;6.53;5.70;;;;;;;15.93;78.46;99882.67;1626169;87;21038;-70
2021/05/26 02:42:55;;;;;;;6.22;4.12;;;;;;;15.97;78.48;99883.75;1605482;88;21090;-70
2021/05/26 02:45:22;;;;;;;4.80;4.25;;;;;;;16.04;78.40;99883.70;1626410;87;20991;-72
2021/05/26 02:47:50;;;;;;;5.47;5.03;;;;;;;16.08;78.21;99883.94;1602308;88;21742;-71
2021/05/26 02:50:19;;;;;;;12.35;4.90;;;;;;;16.08;78.18;99882.03;1624319;88;21003;-74
2021/05/26 02:52:48;;;;;;;6.10;5.50;;;;;;;16.11;78.15;99886.89;1624863;87;21059;-70
2021/05/26 02:55:16;;;;;;;6.62;6.00;;;;;;;16.16;78.14;99877.13;1625447;86;21079;-70
2021/05/26 02:57:44;;;;;;;8.68;5.47;;;;;;;16.17;78.16;99884.14;1617453;88;21006;-72
2021/05/26 03:00:17;;;;;;;6.45;5.87;;;;;;;16.17;78.15;99894.45;1618478;86;21052;-71
2021/05/26 03:02:48;;;;;;;5.78;4.25;;;;;;;16.16;78.11;99898.83;1594044;89;21015;-70
2021/05/26 03:05:16;;;;;;;5.60;4.53;;;;;;;16.14;78.21;99895.84;1580554;89;21103;-70
2021/05/26 03:07:44;;;;;;;12.88;5.12;;;;;;;16.09;78.44;99894.52;1599278;88;21078;-70
2021/05/26 03:10:12;;;;;;;5.37;4.45;;;;;;;16.10;78.51;99897.50;1604769;88;21687;-70
2021/05/26 03:12:40;;;;;;;5.60;5.08;;;;;;;16.17;78.46;99903.14;1630634;86;21027;-70
2021/05/26 03:15:13;;;;;;;8.18;5.60;;;;;;;16.20;78.32;99900.70;1648441;86;21131;-70
2021/05/26 03:17:40;;;;;;;4.28;3.87;;;;;;;16.17;78.45;99895.81;1620196;86;21646;-71
2021/05/26 03:20:11;;;;;;;6.15;5.30;;;;;;;16.18;78.55;99902.87;1630489;86;21622;-70
2021/05/26 03:22:47;;;;;;;6.25;5.03;;;;;;;16.18;78.58;99897.98;1652297;86;21083;-72
2021/05/26 03:25:32;;;;;;;4.65;4.12;;;;;;;16.22;78.64;99897.14;1652989;86;21169;-70
2021/05/26 03:28:05;;;;;;;8.10;4.90;;;;;;;16.26;78.67;99903.63;1598416;88;21661;-72
2021/05/26 03:30:31;;;;;;;6.90;5.20;;;;;;;16.29;78.71;99903.08;1603458;88;21135;-72
2021/05/26 03:32:58;;;;;;;5.72;4.30;;;;;;;16.35;78.56;99906.58;1604451;88;21619;-70
2021/05/26 03:35:25;;;;;;;8.28;5.22;;;;;;;16.41;78.40;99913.02;1605611;88;21054;-70
2021/05/26 03:37:52;;;;;;;5.65;5.05;;;;;;;16.41;78.33;99908.13;1625824;88;21166;-72
2021/05/26 03:40:20;;;;;;;6.37;5.37;;;;;;;16.45;78.39;99906.50;1604264;88;21004;-72
2021/05/26 03:42:49;;;;;;;4.35;3.95;;;;;;;16.53;78.33;99908.60;1618723;88;21030;-70
2021/05/26 03:45:19;;;;;;;5.25;4.30;;;;;;;16.64;78.10;99909.37;1617499;88;21094;-70
2021/05/26 03:47:47;;;;;;;9.73;6.87;;;;;;;16.73;77.92;99910.37;1598543;88;21042;-72
2021/05/26 03:50:13;;;;;;;4.80;4.42;;;;;;;16.78;77.65;99903.55;1619821;86;21102;-71
2021/05/26 03:52:46;;;;;;;8.25;4.28;;;;;;;16.86;77.50;99877.11;1622211;86;20950;-69
2021/05/26 03:55:17;;;;;;;7.75;5.15;;;;;;;16.94;77.41;99885.98;1619128;87;21075;-69
2021/05/26 03:57:44;;;;;;;10.28;4.62;;;;;;;17.06;77.21;99897.84;1601762;88;21007;-71
2021/05/26 04:00:20;;;;;;;5.70;5.20;;;;;;;17.12;76.79;99899.41;1624795;88;21083;-70
2021/05/26 04:02:48;;;;;;;7.25;4.62;;;;;;;17.12;76.83;99892.05;1620845;87;21105;-70
2021/05/26 04:05:14;;;;;;;5.83;3.95;;;;;;;17.12;76.96;99884.47;1618845;88;20955;-71
2021/05/26 04:07:41;;;;;;;8.35;4.83;;;;;;;17.14;77.02;99884.42;1625000;86;21607;-69
2021/05/26 04:10:09;;;;;;;6.45;5.72;;;;;;;17.18;77.02;99896.34;1651098;86;20971;-69
2021/05/26 04:12:36;;;;;;;5.45;4.70;;;;;;;17.28;76.95;99898.95;1606245;88;21026;-70
2021/05/26 04:15:07;;;;;;;5.22;4.78;;;;;;;17.37;76.71;99908.09;1598185;88;21054;-69
2021/05/26 04:17:41;;;;;;;9.58;4.90;;;;;;;17.42;76.62;99911.30;1615620;87;21038;-71
2021/05/26 04:20:12;;;;;;;11.63;6.17;;;;;;;17.41;76.65;99914.56;1617815;88;21030;-69
2021/05/26 04:22:40;;;;;;;5.33;4.20;;;;;;;17.43;76.89;99915.64;1598643;88;21010;-69
2021/05/26 04:25:08;;;;;;;4.90;4.40;;;;;;;17.46;76.89;99924.57;1618796;87;21558;-69
2021/05/26 04:27:34;;;;;;;8.83;4.92;;;;;;;17.44;76.98;99926.23;1598593;88;21010;-68
2021/05/26 04:30:01;;;;;;;4.50;4.08;;;;;;;17.44;77.34;99934.95;1618555;87;21598;-73
2021/05/26 04:32:29;;;;;;;5.58;4.95;;;;;;;17.46;77.66;99936.03;1619003;88;21574;-69
2021/05/26 04:34:56;;;;;;;5.22;4.72;;;;;;;17.50;77.52;99945.22;1618877;87;21090;-70
2021/05/26 04:37:22;;;;;;;5.67;4.12;;;;;;;17.56;77.47;99947.58;1598584;88;21578;-71
2021/05/26 04:39:49;;;;;;;8.23;4.67;;;;;;;17.62;77.37;99952.44;1618623;87;21175;-70
2021/05/26 04:42:16;;;;;;;7.03;4.90;;;;;;;17.68;77.43;99949.93;1618615;87;21006;-70
2021/05/26 04:44:42;;;;;;;5.65;5.08;;;;;;;17.74;77.44;99950.95;1618680;88;21087;-70
2021/05/26 04:47:08;;;;;;;6.20;3.52;;;;;;;17.85;77.25;99946.17;1618870;87;21046;-71
2021/05/26 04:49:37;;;;;;;4.53;4.08;;;;;;;17.98;76.99;99949.56;1618871;87;20998;-70
2021/05/26 04:52:03;;;;;;;4.12;3.72;;;;;;;18.08;76.80;99945.89;1618794;87;21613;-68
2021/05/26 04:54:31;;;;;;;8.63;4.72;;;;;;;18.15;76.40;99943.61;1618799;87;21575;-69
2021/05/26 04:56:58;;;;;;;4.05;3.62;;;;;;;18.25;76.12;99947.55;1618928;87;21062;-68
2021/05/26 04:59:25;;;;;;;5.03;4.55;;;;;;;18.34;75.59;99938.16;1618646;88;21078;-68
2021/05/26 05:01:51;;;;;;;7.17;3.98;;;;;;;18.37;75.42;99938.95;1598188;88;21050;-69
2021/05/26 05:04:17;;;;;;;8.73;4.42;;;;;;;18.36;75.30;99932.69;1618796;87;21078;-71
2021/05/26 05:06:44;;;;;;;9.05;4.65;;;;;;;18.36;75.43;99939.50;1618799;87;20959;-69
2021/05/26 05:09:12;;;;;;;8.45;4.03;;;;;;;18.41;75.46;99941.34;1618786;87;21629;-69
2021/05/26 05:11:40;;;;;;;4.08;3.67;;;;;;;18.46;75.41;99934.45;1618763;87;20986;-72
2021/05/26 05:14:07;;;;;;;5.08;3.58;;;;;;;18.50;75.37;99932.75;1618819;88;21099;-68
2021/05/26 05:16:33;;;;;;;5.00;3.60;;;;;;;18.55;75.24;99932.16;1618625;88;21125;-69
2021/05/26 05:19:00;;;;;;;2.85;2.65;;;;;;;18.61;74.94;99931.50;1618741;88;21003;-69
2021/05/26 05:21:28;;;;;;;9.78;3.90;;;;;;;18.67;74.67;99933.86;1618701;88;21599;-69
2021/05/26 05:23:56;;;;;;;8.13;3.87;;;;;;;18.73;74.65;99932.67;1618651;87;20991;-71
2021/05/26 05:26:22;;;;;;;3.72;3.30;;;;;;;18.80;74.59;99930.91;1598482;88;21114;-68
2021/05/26 05:28:49;;;;;;;9.18;3.60;;;;;;;18.87;74.47;99942.80;1618964;87;21270;-69
2021/05/26 05:31:17;;;;;;;4.05;3.67;;;;;;;18.91;74.29;99942.45;1598485;88;21057;-71
2021/05/26 05:33:45;;;;;;;8.63;4.03;;;;;;;18.95;73.98;99947.56;1618840;87;21071;-70
2021/05/26 05:36:12;;;;;;;5.72;3.60;;;;;;;18.99;73.60;99948.61;1618979;87;21543;-70
2021/05/26 05:38:38;;;;;;;12.15;4.60;;;;;;;18.97;73.49;99950.81;1599009;88;21050;-69
2021/05/26 05:41:05;;;;;;;6.42;3.83;;;;;;;18.92;73.67;99958.52;1618742;87;21586;-69
2021/05/26 05:43:31;;;;;;;4.30;3.27;;;;;;;18.95;73.64;99962.55;1618509;87;21002;-71
2021/05/26 05:45:57;;;;;;;5.87;4.30;;;;;;;18.99;73.41;99968.48;1618966;87;21555;-70
2021/05/26 05:48:24;;;;;;;4.62;3.77;;;;;;;19.01;73.32;99964.91;1618555;87;21015;-70
2021/05/26 05:50:50;;;;;;;5.87;4.03;;;;;;;19.08;73.22;99977.61;1598628;88;21655;-71
2021/05/26 05:53:17;;;;;;;6.78;4.33;;;;;;;19.13;72.55;99987.08;1620081;88;21217;-72
2021/05/26 05:55:43;;;;;;;6.72;4.08;;;;;;;19.11;71.93;99975.64;1620523;88;21107;-69
2021/05/26 05:58:11;;;;;;;4.87;4.25;;;;;;;19.14;71.96;99976.95;1631942;86;21045;-69
2021/05/26 06:00:39;;;;;;;3.62;3.25;;;;;;;19.19;71.85;99975.50;1652982;86;20986;-72
2021/05/26 06:03:05;;;;;;;9.53;4.42;;;;;;;19.24;71.76;99969.95;1652885;86;20967;-69
2021/05/26 06:05:32;;;;;;;12.33;4.55;;;;;;;19.25;71.81;99976.22;1631837;86;21894;-70
2021/05/26 06:07:59;;;;;;;4.22;3.72;;;;;;;19.31;71.70;99972.30;1605182;87;21026;-68
2021/05/26 06:10:26;;;;;;;5.30;4.80;;;;;;;19.35;71.33;99967.30;1618754;87;21062;-70
2021/05/26 06:12:56;;;;;;;6.80;4.05;;;;;;;19.37;70.78;99961.01;1618868;88;21022;-70
2021/05/26 06:15:23;;;;;;;7.22;4.22;;;;;;;19.33;71.29;99968.15;1598698;88;21070;-70
2021/05/26 06:17:50;;;;;;;6.05;3.27;;;;;;;19.27;71.05;99968.56;1598559;88;21064;-73
2021/05/26 06:20:16;;;;;;;5.30;4.03;;;;;;;19.28;70.52;99967.46;1598674;88;21050;-70
2021/05/26 06:22:45;;;;;;;5.37;3.92;;;;;;;19.30;70.34;99969.31;1618814;87;21054;-69
2021/05/26 06:25:13;;;;;;;9.15;3.65;;;;;;;19.30;70.60;99970.13;1618815;87;21603;-70
2021/05/26 06:27:40;;;;;;;6.42;3.98;;;;;;;19.32;70.93;99976.66;1598747;88;20986;-69
2021/05/26 06:30:07;;;;;;;4.92;3.55;;;;;;;19.34;71.02;99980.69;1618653;88;21046;-69
2021/05/26 06:32:34;;;;;;;7.30;3.62;;;;;;;19.39;71.07;99977.86;1618822;88;21069;-69
2021/05/26 06:35:01;;;;;;;9.63;4.35;;;;;;;19.50;71.08;99979.34;1618905;87;21568;-70
2021/05/26 06:37:28;;;;;;;6.67;6.08;;;;;;;19.61;70.20;99984.61;1618908;88;21114;-69
2021/05/26 06:39:54;;;;;;;7.05;4.55;;;;;;;19.74;69.61;99976.97;1619133;87;21038;-77
2021/05/26 06:42:20;;;;;;;5.75;4.00;;;;;;;19.85;69.48;99978.39;1620123;88;21182;-70
2021/05/26 06:44:48;;;;;;;5.12;3.67;;;;;;;19.90;69.59;99985.89;1586240;89;21093;-70
2021/05/26 06:47:14;;;;;;;4.33;3.67;;;;;;;19.95;69.36;99991.84;1586158;89;21035;-69
2021/05/26 06:49:41;;;;;;;5.55;3.22;;;;;;;20.08;68.38;99981.45;1608186;88;21117;-69
2021/05/26 06:52:09;;;;;;;4.28;3.85;;;;;;;20.21;67.41;99983.34;1586130;89;21035;-70
2021/05/26 06:54:36;;;;;;;4.28;3.90;;;;;;;20.23;66.73;99985.23;1586194;89;21081;-69
2021/05/26 06:57:02;;;;;;;3.70;3.40;;;;;;;20.29;65.74;100005.02;1607684;88;20974;-70
2021/05/26 06:59:28;;;;;;;11.10;3.98;;;;;;;20.32;64.25;100001.73;1608301;89;21002;-71
2021/05/26 07:01:55;;;;;;;5.33;4.30;;;;;;;20.39;64.21;99999.38;1607972;88;21097;-69
2021/05/26 07:04:21;;;;;;;6.42;3.85;;;;;;;20.47;63.57;100005.50;1608458;89;20990;-70
2021/05/26 07:06:48;;;;;;;4.70;4.25;;;;;;;20.48;63.08;100001.62;1608471;89;21098;-70
2021/05/26 07:09:15;;;;;;;8.55;3.77;;;;;;;20.53;63.28;100003.46;1586731;89;21038;-70
2021/05/26 07:11:42;;;;;;;4.80;3.75;;;;;;;20.59;63.11;100003.02;1608258;89;21634;-70
2021/05/26 07:14:10;;;;;;;6.37;3.00;;;;;;;20.64;62.83;99996.07;1586652;89;21125;-69
2021/05/26 07:16:37;;;;;;;10.35;3.87;;;;;;;20.71;62.24;100001.94;1608133;89;20982;-68
2021/05/26 07:19:07;;;;;;;12.37;5.12;;;;;;;20.76;61.85;99996.34;1608308;88;20978;-70
2021/05/26 07:21:33;;;;;;;12.20;4.15;;;;;;;20.79;61.88;99987.52;1607943;87;21006;-68
2021/05/26 07:24:00;;;;;;;10.90;3.60;;;;;;;20.79;61.95;99984.78;1586062;89;21018;-68
2021/05/26 07:26:27;;;;;;;10.60;5.03;;;;;;;20.84;61.93;99990.69;1608116;88;21574;-69
2021/05/26 07:28:53;;;;;;;10.88;4.60;;;;;;;20.91;62.06;100001.98;1586251;89;21014;-70
2021/05/26 07:31:20;;;;;;;16.70;5.28;;;;;;;20.92;62.13;100000.87;1607689;88;22487;-69
2021/05/26 07:33:47;;;;;;;13.55;4.37;;;;;;;20.92;61.81;100010.44;1586075;89;20986;-70
2021/05/26 07:36:15;;;;;;;10.85;4.78;;;;;;;20.95;61.91;100013.13;1607969;88;21013;-70
2021/05/26 07:38:42;;;;;;;14.87;4.65;;;;;;;20.99;62.03;100012.75;1607944;89;21109;-70
2021/05/26 07:41:08;;;;;;;9.23;3.60;;;;;;;21.00;61.98;100007.53;1586194;89;21594;-69
2021/05/26 07:43:36;;;;;;;14.15;4.85;;;;;;;21.05;61.85;100008.78;1589796;88;21744;-69
2021/05/26 07:46:03;;;;;;;11.78;4.40;;;;;;;21.05;61.96;100021.90;1618383;88;20978;-71
2021/05/26 07:48:31;;;;;;;15.60;5.17;;;;;;;21.06;61.79;100020.75;1596309;88;21135;-69
2021/05/26 07:50:58;;;;;;;13.48;5.08;;;;;;;21.07;61.83;100021.01;1596307;88;21090;-70
2021/05/26 07:53:25;;;;;;;24.65;4.97;;;;;;;21.06;61.79;100026.23;1618464;88;20994;-69
2021/05/26 07:55:53;;;;;;;11.12;4.20;;;;;;;21.07;61.85;100021.01;1596082;88;21139;-79
2021/05/26 07:58:19;;;;;;;15.08;6.35;;;;;;;21.10;62.01;100020.97;1618215;88;21082;-70
2021/05/26 08:00:45;;;;;;;10.58;4.78;;;;;;;21.09;62.39;100024.81;1618320;88;20983;-69
2021/05/26 08:03:13;;;;;;;7.78;4.70;;;;;;;21.06;62.67;100028.15;1596134;88;21134;-69
2021/05/26 08:05:39;;;;;;;13.62;4.70;;;;;;;21.06;62.70;100019.39;1618361;88;21002;-70
2021/05/26 08:08:05;;;;;;;10.40;4.58;;;;;;;21.14;62.64;100024.72;1618340;88;21124;-70
2021/05/26 08:10:31;;;;;;;7.42;4.47;;;;;;;21.16;62.45;100023.27;1618423;88;21046;-68
2021/05/26 08:12:58;;;;;;;9.23;3.62;;;;;;;21.14;62.49;100024.16;1618068;88;21074;-69
2021/05/26 08:15:26;;;;;;;9.75;3.45;;;;;;;21.15;62.55;100029.08;1618205;88;20919;-70
2021/05/26 08:17:52;;;;;;;12.07;5.30;;;;;;;21.14;62.65;100031.00;1596384;88;21066;-71
2021/05/26 08:20:18;;;;;;;13.58;4.80;;;;;;;21.11;62.92;100031.57;1618304;88;21178;-69
2021/05/26 08:22:46;;;;;;;6.15;3.85;;;;;;;21.12;63.17;100029.09;1618335;88;20935;-70
2021/05/26 08:25:13;;;;;;;6.37;3.30;;;;;;;21.17;63.27;100035.84;1618298;88;21646;-69
2021/05/26 08:27:39;;;;;;;5.87;2.77;;;;;;;21.22;63.29;100037.08;1596287;88;21107;-70
2021/05/26 08:30:06;;;;;;;5.15;3.10;;;;;;;21.25;63.12;100040.55;1596273;88;21012;-71
2021/05/26 08:32:33;;;;;;;6.30;3.60;;;;;;;21.28;63.06;100039.13;1618263;88;21085;-70
2021/05/26 08:34:59;;;;;;;5.03;2.47;;;;;;;21.30;63.01;100037.69;1618342;87;21066;-71
2021/05/26 08:37:26;;;;;;;12.47;4.08;;;;;;;21.30;63.13;100034.14;1596061;88;21007;-70
2021/05/26 08:39:53;;;;;;;8.73;4.58;;;;;;;21.23;63.08;100029.69;1618338;88;20988;-70
2021/05/26 08:42:20;;;;;;;4.55;3.52;;;;;;;21.21;63.33;100031.36;1596510;88;21050;-71
2021/05/26 08:44:47;;;;;;;5.65;4.25;;;;;;;21.25;63.21;100031.53;1618633;88;21036;-72
2021/05/26 08:47:18;;;;;;;4.58;3.47;;;;;;;21.27;63.30;100029.30;1598477;88;21010;-72
2021/05/26 08:49:47;;;;;;;8.25;4.80;;;;;;;21.33;63.40;100035.46;1618674;87;21050;-70
2021/05/26 08:52:18;;;;;;;6.03;3.90;;;;;;;21.38;63.29;100032.59;1598575;88;21122;-69
2021/05/26 08:54:49;;;;;;;8.43;4.50;;;;;;;21.39;63.25;100036.36;1619133;88;21006;-68
2021/05/26 08:57:15;;;;;;;9.23;4.72;;;;;;;21.36;63.39;100035.64;1618805;88;21620;-71
2021/05/26 08:59:42;;;;;;;7.85;4.62;;;;;;;21.39;63.14;100031.48;1618779;88;21078;-70
2021/05/26 09:02:10;;;;;;;10.53;4.22;;;;;;;21.38;63.02;100024.39;1610556;86;21010;-69
2021/05/26 09:04:37;;;;;;;7.03;4.28;;;;;;;21.36;63.07;100032.09;1625533;88;21125;-70
2021/05/26 09:07:16;;;;;;;4.50;3.80;;;;;;;21.38;62.89;100029.86;1577848;91;20987;-70
2021/05/26 09:09:52;;;;;;;9.98;4.67;;;;;;;21.40;62.75;100028.41;1577623;90;21165;-69
2021/05/26 09:12:36;;;;;;;6.30;3.52;;;;;;;21.32;62.93;100034.65;1565824;91;21106;-72
2021/05/26 09:15:11;;;;;;;5.72;3.22;;;;;;;21.31;63.00;100040.68;1577749;89;21061;-69
2021/05/26 09:17:39;;;;;;;3.27;2.98;;;;;;;21.25;63.42;100048.76;1565958;90;20971;-69
2021/05/26 09:20:25;;;;;;;4.45;2.98;;;;;;;21.04;64.12;100059.94;1577752;91;21618;-71
2021/05/26 09:23:20;;;;;;;3.85;2.70;;;;;;;20.83;65.10;100053.31;1577961;91;21277;-68
2021/05/26 09:25:52;;;;;;;10.05;3.30;;;;;;;20.60;66.06;100055.20;1577558;90;21289;-70
2021/05/26 09:28:34;;;;;;;5.85;3.10;;;;;;;20.45;66.98;100058.27;1567097;90;21070;-69
2021/05/26 09:31:04;;;;;;;6.78;3.25;;;;;;;20.38;67.23;100051.84;1591616;89;21160;-70
2021/05/26 09:33:47;;;;;;;3.05;2.75;;;;;;;20.30;67.44;100063.49;1578110;91;21106;-69
2021/05/26 09:36:24;;;;;;;7.80;3.63;;;;;;;20.17;67.89;100058.02;1578055;89;21894;-69
2021/05/26 09:38:57;;;;;;;5.87;2.98;;;;;;;20.05;68.48;100061.23;1579067;88;21035;-76
2021/05/26 09:41:29;;;;;;;6.62;3.72;;;;;;;19.95;68.96;100058.73;1575444;89;21634;-66
2021/05/26 09:44:10;;;;;;;5.40;3.22;;;;;;;19.87;69.35;100067.05;1574007;90;21083;-68
2021/05/26 09:46:41;;;;;;;6.80;3.70;;;;;;;19.83;69.63;100063.31;1589146;89;21043;-66
2021/05/26 09:49:17;;;;;;;4.20;3.83;;;;;;;19.82;69.93;100064.41;1566777;90;21074;-66
2021/05/26 09:51:52;;;;;;;8.48;4.08;;;;;;;19.79;70.40;100066.39;1566612;90;21119;-70
2021/05/26 09:54:26;;;;;;;4.83;3.75;;;;;;;19.77;70.54;100066.42;1566820;90;20994;-66
2021/05/26 09:57:06;;;;;;;9.43;3.95;;;;;;;19.73;70.79;100063.50;1590965;89;20975;-68
2021/05/26 09:59:36;;;;;;;4.42;3.80;;;;;;;19.70;70.96;100062.75;1580352;90;21094;-68
2021/05/26 10:02:06;;;;;;;6.17;3.92;;;;;;;19.67;71.02;100066.06;1601946;89;21753;-70
2021/05/26 10:04:31;;;;;;;6.75;4.35;;;;;;;19.63;71.09;100067.77;1601472;89;21205;-71
2021/05/26 10:07:16;;;;;;;8.83;4.40;;;;;;;19.61;71.16;100061.01;1559506;91;21152;-73
2021/05/26 10:09:45;;;;;;;4.33;3.92;;;;;;;19.61;71.45;100067.28;1573934;91;21151;-68
2021/05/26 10:12:19;;;;;;;11.95;5.33;;;;;;;19.61;71.61;100069.20;1576730;90;21194;-72
2021/05/26 10:14:47;;;;;;;7.78;3.98;;;;;;;19.60;71.88;100075.20;1577756;90;21244;-71
2021/05/26 10:17:19;;;;;;;12.15;6.37;;;;;;;19.61;72.25;100079.56;1566764;90;21113;-71
2021/05/26 10:19:43;;;;;;;11.00;4.22;;;;;;;19.61;72.45;100073.29;1576114;91;21151;-69
2021/05/26 10:22:10;;;;;;;11.80;4.67;;;;;;;19.63;72.51;100075.95;1555647;91;21079;-71
2021/05/26 10:24:36;;;;;;;3.90;3.60;;;;;;;19.64;72.62;100072.13;1557797;90;21984;-70
2021/05/26 10:27:06;;;;;;;5.08;4.60;;;;;;;19.63;72.84;100071.05;1572311;90;21129;-69
2021/05/26 10:29:38;;;;;;;5.55;4.72;;;;;;;19.58;73.06;100073.31;1573954;91;21692;-68
2021/05/26 10:32:11;;;;;;;;;;;;;;;19.53;73.36;100078.86;1553452;91;21056;-74
2021/05/26 10:34:52;;;;;;;8.03;5.00;;;;;;;19.49;73.72;100080.03;1571081;91;20259;-70
2021/05/26 10:37:29;;;;;;;9.83;4.42;;;;;;;19.45;74.01;100078.20;1550414;91;21091;-72
2021/05/26 10:39:56;;;;;;;8.40;4.95;;;;;;;19.42;74.20;100076.86;1572701;90;21107;-71
2021/05/26 10:42:28;;;;;;;8.08;5.17;;;;;;;19.44;74.38;100075.20;1572871;91;20984;-67
2021/05/26 10:45:10;;;;;;;7.75;4.78;;;;;;;19.49;74.36;100072.39;1573659;89;21131;-69
2021/05/26 10:47:45;;;;;;;13.43;5.42;;;;;;;19.55;74.33;100071.20;1552886;91;21036;-70
2021/05/26 10:50:25;;;;;;;5.75;5.25;;;;;;;19.61;74.06;100071.37;1573407;91;21083;-71
2021/05/26 10:53:01;;;;;;;6.15;4.78;;;;;;;19.63;73.77;100071.87;1573300;90;21260;-66
2021/05/26 10:55:47;;;;;;;7.47;4.72;;;;;;;19.64;73.78;100072.68;1534377;91;21038;-66
2021/05/26 10:58:25;;;;;;;9.10;4.42;;;;;;;19.65;73.91;100076.48;1540553;91;21016;-67
2021/05/26 11:01:08;;;;;;;10.90;5.80;;;;;;;19.66;74.10;100083.56;1573393;91;21084;-65
2021/05/26 11:03:37;;;;;;;5.67;4.55;;;;;;;19.70;74.25;100079.67;1573506;91;21044;-65
2021/05/26 11:06:30;;;;;;;7.87;5.58;;;;;;;19.75;74.12;100073.57;1573473;91;21694;-67
2021/05/26 11:08:57;;;;;;;6.15;4.62;;;;;;;19.79;73.80;100086.87;1552558;91;21020;-68
2021/05/26 11:11:34;;;;;;;9.90;4.80;;;;;;;19.81;73.65;100081.09;1573516;91;21588;-77
2021/05/26 11:14:13;;;;;;;13.40;4.47;;;;;;;19.79;73.88;100081.41;1573364;90;21155;-71
2021/05/26 11:16:50;;;;;;;6.15;5.62;;;;;;;19.76;74.52;100081.98;1573368;90;21108;-70
2021/05/26 11:19:22;;;;;;;6.55;5.20;;;;;;;19.70;75.23;100084.58;1573279;90;21660;-70
2021/05/26 11:22:13;;;;;;;9.95;6.28;;;;;;;19.63;75.71;100073.78;1573327;90;21031;-71
2021/05/26 11:24:43;;;;;;;5.87;5.25;;;;;;;19.59;76.15;100073.58;1573428;91;21623;-68
2021/05/26 11:27:22;;;;;;;9.58;5.03;;;;;;;19.67;76.36;100076.16;1553062;91;21123;-69
2021/05/26 11:30:03;;;;;;;7.40;5.03;;;;;;;19.65;76.44;100068.30;1573144;91;21107;-72
2021/05/26 11:32:25;;;;;;;6.60;5.67;;;;;;;19.71;76.46;100059.47;1576471;91;21736;-71
2021/05/26 11:34:54;;;;;;;12.88;5.17;;;;;;;19.78;76.37;100057.14;1573215;91;21111;-69
2021/05/26 11:37:33;;;;;;;8.40;5.22;;;;;;;19.87;76.14;100056.69;1573303;90;21112;-70
2021/05/26 11:40:02;;;;;;;4.50;4.10;;;;;;;19.92;75.95;100060.69;1573423;91;21119;-70